Time;durP1;ratioP1;P1;durP2;ratioP2;P2;SDS_P1;SDS_P2;PMS_P1;PMS_P2;Temp;Humidity;BMP_temperature;BMP_pressure;BME280_temperature;BME280_humidity;BME280_pressure;Samples;Min_cycle;Max_cycle;Signal;HPM_P1;HPM_P2
2021/11/04 00:00:18;;;;;;;10.13;9.13;;;9.40;99.90;;;;;;5015487;28;20545;-92
2021/11/04 00:02:45;;;;;;;9.13;8.07;;;9.40;99.90;;;;;;5015248;28;20450;-89
2021/11/04 00:05:14;;;;;;;10.87;9.77;;;9.40;99.90;;;;;;5015065;28;20445;-91
2021/11/04 00:07:41;;;;;;;11.03;9.80;;;9.40;99.90;;;;;;5014679;28;20474;-90
2021/11/04 00:10:10;;;;;;;12.70;9.57;;;9.40;99.90;;;;;;5017545;28;20457;-90
2021/11/04 00:12:38;;;;;;;10.23;9.23;;;9.30;99.90;;;;;;5022458;28;20864;-90
2021/11/04 00:15:05;;;;;;;11.07;10.07;;;9.30;99.90;;;;;;5018416;28;20458;-90
2021/11/04 00:17:32;;;;;;;11.10;10.20;;;9.30;99.90;;;;;;5014940;28;20458;-90
2021/11/04 00:19:59;;;;;;;11.47;9.70;;;9.40;99.90;;;;;;5014593;28;20446;-90
2021/11/04 00:22:27;;;;;;;10.93;9.93;;;9.40;99.90;;;;;;5018917;28;20442;-90
2021/11/04 00:24:55;;;;;;;10.77;9.67;;;9.30;99.90;;;;;;5029446;28;20450;-91
2021/11/04 00:27:25;;;;;;;10.10;9.03;;;9.30;99.90;;;;;;5026762;28;20841;-90
2021/11/04 00:29:52;;;;;;;11.13;10.03;;;9.30;99.90;;;;;;5025405;28;20454;-91
2021/11/04 00:32:19;;;;;;;8.87;8.07;;;9.30;99.90;;;;;;5031458;28;20480;-91
2021/11/04 00:34:48;;;;;;;10.47;9.57;;;9.30;99.90;;;;;;5020920;28;20951;-90
2021/11/04 00:37:15;;;;;;;10.77;9.27;;;9.30;99.90;;;;;;5014529;28;20473;-91
2021/11/04 00:39:43;;;;;;;6.80;6.20;;;9.20;99.90;;;;;;5026023;28;20438;-89
2021/11/04 00:42:10;;;;;;;8.00;7.00;;;9.20;99.90;;;;;;5021505;28;20442;-89
2021/11/04 00:44:37;;;;;;;6.03;5.43;;;9.20;99.90;;;;;;5019857;28;20446;-90
2021/11/04 00:47:04;;;;;;;5.70;5.20;;;9.20;99.90;;;;;;5019700;28;20895;-89
2021/11/04 00:49:31;;;;;;;6.40;5.80;;;9.10;99.90;;;;;;5022105;28;20462;-89
2021/11/04 00:51:58;;;;;;;10.80;9.67;;;9.20;99.90;;;;;;5022028;28;20498;-90
2021/11/04 00:54:24;;;;;;;6.53;5.93;;;9.20;99.90;;;;;;5027262;28;20453;-89
2021/11/04 00:56:52;;;;;;;6.77;5.57;;;9.30;99.90;;;;;;5025199;28;20457;-90
2021/11/04 00:59:19;;;;;;;7.67;6.90;;;9.30;99.90;;;;;;5025289;28;20438;-89
2021/11/04 01:01:46;;;;;;;8.17;7.37;;;9.40;99.90;;;;;;5027933;28;20446;-88
2021/11/04 01:04:12;;;;;;;5.10;4.70;;;9.40;99.90;;;;;;5026521;28;20850;-89
2021/11/04 01:06:39;;;;;;;5.27;4.80;;;9.40;99.90;;;;;;5026999;28;20465;-89
2021/11/04 01:09:06;;;;;;;6.13;5.10;;;9.40;99.90;;;;;;5025759;28;20438;-91
2021/11/04 01:11:33;;;;;;;6.17;5.57;;;9.40;99.90;;;;;;5025429;28;20453;-90
2021/11/04 01:14:01;;;;;;;5.83;5.30;;;9.40;99.90;;;;;;5024518;28;20452;-88
2021/11/04 01:16:28;;;;;;;8.80;4.50;;;9.40;99.90;;;;;;5049659;28;20428;-88
2021/11/04 01:18:55;;;;;;;4.03;3.67;;;9.40;99.90;;;;;;5046311;28;20446;-87
2021/11/04 01:21:22;;;;;;;4.33;3.40;;;9.40;99.90;;;;;;5046920;28;20437;-88
2021/11/04 01:23:49;;;;;;;3.73;3.10;;;9.50;99.90;;;;;;5046538;28;20432;-89
2021/11/04 01:26:16;;;;;;;3.10;2.70;;;9.40;99.90;;;;;;5025307;28;20450;-89
2021/11/04 01:28:42;;;;;;;2.43;2.23;;;9.50;99.90;;;;;;5028488;28;20448;-89
2021/11/04 01:31:10;;;;;;;2.50;2.30;;;9.50;99.90;;;;;;5028431;28;20456;-89
2021/11/04 01:33:37;;;;;;;1.87;1.73;;;9.50;99.90;;;;;;5047885;28;20480;-88
2021/11/04 01:36:05;;;;;;;1.20;1.10;;;9.50;99.90;;;;;;5030798;28;20438;-89
2021/11/04 01:38:31;;;;;;;1.00;0.90;;;9.50;99.90;;;;;;5026177;28;20994;-89
2021/11/04 01:40:58;;;;;;;3.27;1.20;;;9.60;99.90;;;;;;5024384;28;20456;-89
2021/11/04 01:43:25;;;;;;;1.20;1.10;;;9.50;99.90;;;;;;5022225;28;20525;-90
2021/11/04 01:45:52;;;;;;;1.50;1.40;;;9.50;99.90;;;;;;5025610;28;20454;-89
2021/11/04 01:48:21;;;;;;;1.17;1.07;;;9.50;99.90;;;;;;5025127;28;20461;-90
2021/11/04 01:50:48;;;;;;;1.87;1.33;;;9.50;99.90;;;;;;5028055;28;20447;-88
2021/11/04 01:53:17;;;;;;;1.70;1.30;;;9.50;99.90;;;;;;5027771;28;20484;-89
2021/11/04 01:55:44;;;;;;;2.17;1.40;;;9.50;99.90;;;;;;5037849;28;20439;-88
2021/11/04 01:58:11;;;;;;;2.13;1.30;;;9.50;99.90;;;;;;5035497;28;20985;-89
2021/11/04 02:00:38;;;;;;;1.60;1.30;;;9.40;99.90;;;;;;5040617;28;20439;-89
2021/11/04 02:03:11;;;;;;;2.93;1.57;;;9.40;99.90;;;;;;5031919;28;20449;-90
2021/11/04 02:05:48;;;;;;;2.30;2.10;;;9.30;99.90;;;;;;5035688;28;20434;-89
2021/11/04 02:08:20;;;;;;;1.93;1.83;;;9.30;99.90;;;;;;5028811;28;20927;-89
2021/11/04 02:10:52;;;;;;;2.30;1.83;;;9.20;99.90;;;;;;5028911;28;20449;-88
2021/11/04 02:13:26;;;;;;;2.10;1.87;;;9.10;99.90;;;;;;5031109;28;20474;-88
2021/11/04 02:16:03;;;;;;;2.00;1.90;;;8.90;99.90;;;;;;5030294;28;20520;-89
2021/11/04 02:18:34;;;;;;;2.60;2.40;;;8.80;99.90;;;;;;5025633;28;20882;-89
2021/11/04 02:21:15;;;;;;;2.30;2.10;;;8.70;99.90;;;;;;5030527;28;20437;-88
2021/11/04 02:23:49;;;;;;;1.90;1.80;;;8.60;99.90;;;;;;5031878;28;20449;-89
2021/11/04 02:26:20;;;;;;;2.53;2.33;;;8.50;99.90;;;;;;5025173;28;20450;-88
2021/11/04 02:28:48;;;;;;;2.40;1.90;;;8.50;99.90;;;;;;5029726;28;20432;-89
2021/11/04 02:31:15;;;;;;;1.90;1.80;;;8.50;99.90;;;;;;5026586;28;20450;-89
2021/11/04 02:33:44;;;;;;;2.67;2.20;;;8.40;99.90;;;;;;5026697;28;20474;-89
2021/11/04 02:36:11;;;;;;;2.47;2.27;;;8.30;99.90;;;;;;5033447;28;20450;-87
2021/11/04 02:38:38;;;;;;;2.33;2.13;;;8.30;99.90;;;;;;5033671;28;20540;-89
2021/11/04 02:41:06;;;;;;;2.40;2.20;;;8.30;99.90;;;;;;5028094;28;20457;-88
2021/11/04 02:43:36;;;;;;;3.97;2.20;;;8.20;99.90;;;;;;5028775;28;20815;-90
2021/11/04 02:46:04;;;;;;;2.77;2.57;;;8.20;99.90;;;;;;5042017;28;20453;-88
2021/11/04 02:48:32;;;;;;;3.17;2.60;;;8.20;99.90;;;;;;5033535;28;20474;-88
2021/11/04 02:50:59;;;;;;;2.90;2.70;;;8.20;99.90;;;;;;5028583;28;20477;-88
2021/11/04 02:53:29;;;;;;;2.30;2.10;;;8.20;99.90;;;;;;5028304;28;20484;-88
2021/11/04 02:55:57;;;;;;;2.33;2.00;;;8.10;99.90;;;;;;5030278;28;21246;-86
2021/11/04 02:58:25;;;;;;;2.80;2.33;;;8.10;99.90;;;;;;5046429;28;20480;-86
2021/11/04 03:00:55;;;;;;;2.50;2.30;;;8.10;99.90;;;;;;5048275;28;20449;-88
2021/11/04 03:03:22;;;;;;;2.53;2.33;;;8.10;99.90;;;;;;5040870;28;20442;-88
2021/11/04 03:05:48;;;;;;;2.80;2.60;;;8.10;99.90;;;;;;5029654;28;20446;-88
2021/11/04 03:08:15;;;;;;;2.40;2.20;;;8.20;99.90;;;;;;5033543;28;20469;-88
2021/11/04 03:10:42;;;;;;;3.17;2.97;;;8.10;99.90;;;;;;5042464;28;20844;-87
2021/11/04 03:13:09;;;;;;;2.63;2.43;;;8.00;99.90;;;;;;5037148;28;20474;-88
2021/11/04 03:15:39;;;;;;;2.53;2.33;;;8.00;99.90;;;;;;5027328;28;21195;-88
2021/11/04 03:18:08;;;;;;;2.60;2.40;;;7.90;99.90;;;;;;5028825;28;21779;-89
2021/11/04 03:20:35;;;;;;;2.60;2.40;;;7.90;99.90;;;;;;5027890;28;20439;-88
2021/11/04 03:23:04;;;;;;;2.63;2.40;;;8.00;99.90;;;;;;5028438;28;20449;-89
2021/11/04 03:25:31;;;;;;;2.17;1.97;;;8.00;99.90;;;;;;5025876;28;20445;-88
2021/11/04 03:28:00;;;;;;;1.73;1.63;;;8.00;99.90;;;;;;5029401;28;20474;-88
2021/11/04 03:30:30;;;;;;;2.00;1.90;;;8.00;99.90;;;;;;5035557;28;20437;-86
2021/11/04 03:32:59;;;;;;;2.60;2.00;;;8.00;99.90;;;;;;5041720;28;20480;-89
2021/11/04 03:35:30;;;;;;;1.67;1.57;;;7.90;99.90;;;;;;5023734;28;20445;-88
2021/11/04 03:37:58;;;;;;;1.97;1.40;;;8.00;99.90;;;;;;5023496;28;20472;-89
2021/11/04 03:40:26;;;;;;;1.33;1.23;;;8.00;99.90;;;;;;5033391;28;20447;-89
2021/11/04 03:42:53;;;;;;;1.30;1.20;;;7.90;99.90;;;;;;5026414;28;20943;-87
2021/11/04 03:45:21;;;;;;;1.50;1.40;;;7.80;99.90;;;;;;5027724;28;20446;-88
2021/11/04 03:47:48;;;;;;;1.20;1.10;;;7.80;99.90;;;;;;5029802;28;20462;-89
2021/11/04 03:50:16;;;;;;;1.30;1.20;;;7.80;99.90;;;;;;5030546;28;20453;-86
2021/11/04 03:52:45;;;;;;;2.80;1.43;;;7.70;99.90;;;;;;5041974;28;20548;-89
2021/11/04 03:55:14;;;;;;;1.40;1.20;;;7.80;99.90;;;;;;5022951;28;20437;-88
2021/11/04 03:57:41;;;;;;;1.33;1.00;;;7.80;99.90;;;;;;5027690;28;20484;-88
2021/11/04 04:00:12;;;;;;;1.30;1.17;;;7.70;99.90;;;;;;5038385;28;20886;-89
2021/11/04 04:02:39;;;;;;;2.93;1.30;;;7.70;99.90;;;;;;5026974;28;20466;-90
2021/11/04 04:05:07;;;;;;;1.70;1.57;;;7.60;99.90;;;;;;5027070;28;20445;-88
2021/11/04 04:07:34;;;;;;;1.40;1.30;;;7.60;99.90;;;;;;5026311;28;20474;-87
2021/11/04 04:10:02;;;;;;;1.40;1.30;;;7.60;99.90;;;;;;5030622;28;20450;-90
2021/11/04 04:12:31;;;;;;;1.20;1.10;;;7.70;99.90;;;;;;5039990;28;20449;-88
2021/11/04 04:14:58;;;;;;;1.30;1.13;;;7.70;99.90;;;;;;5034924;28;20953;-89
2021/11/04 04:17:24;;;;;;;2.30;1.43;;;7.70;99.90;;;;;;5029703;28;20450;-89
2021/11/04 04:19:52;;;;;;;1.70;1.30;;;7.70;99.90;;;;;;5031190;28;20426;-88
2021/11/04 04:22:20;;;;;;;1.50;1.40;;;7.60;99.90;;;;;;5035876;28;20444;-88
2021/11/04 04:24:47;;;;;;;1.60;1.43;;;7.60;99.90;;;;;;5032583;28;20444;-88
2021/11/04 04:27:15;;;;;;;1.30;1.20;;;7.50;99.90;;;;;;5031801;28;20462;-89
2021/11/04 04:29:42;;;;;;;2.30;2.10;;;7.60;99.90;;;;;;5031530;28;20423;-85
2021/11/04 04:32:09;;;;;;;1.40;1.30;;;7.60;99.90;;;;;;5041630;28;20413;-85
2021/11/04 04:34:36;;;;;;;1.50;1.37;;;7.60;99.90;;;;;;5044457;28;20476;-86
2021/11/04 04:37:03;;;;;;;1.47;1.37;;;7.60;99.90;;;;;;5037506;28;20462;-84
2021/11/04 04:39:33;;;;;;;1.60;1.40;;;7.50;99.90;;;;;;5036085;28;20442;-85
2021/11/04 04:42:00;;;;;;;1.83;1.60;;;7.50;99.90;;;;;;5036125;28;20446;-85
2021/11/04 04:44:28;;;;;;;1.63;1.53;;;7.50;99.90;;;;;;5036887;28;20442;-84
2021/11/04 04:46:55;;;;;;;1.63;1.53;;;7.50;99.90;;;;;;5035294;28;20464;-85
2021/11/04 04:49:21;;;;;;;3.93;1.80;;;7.50;99.90;;;;;;5035970;28;20446;-84
2021/11/04 04:51:48;;;;;;;1.37;1.27;;;7.60;99.90;;;;;;5032617;28;20516;-84
2021/11/04 04:54:15;;;;;;;1.40;1.07;;;7.60;99.90;;;;;;5030350;28;20481;-84
2021/11/04 04:56:42;;;;;;;1.53;1.40;;;7.60;99.90;;;;;;5027352;28;20462;-85
2021/11/04 04:59:08;;;;;;;1.77;1.13;;;7.60;99.90;;;;;;5029209;28;20495;-85
2021/11/04 05:01:36;;;;;;;1.80;1.40;;;7.60;99.90;;;;;;5040603;28;20437;-84
2021/11/04 05:04:03;;;;;;;1.90;1.10;;;7.70;99.90;;;;;;5036328;28;20446;-84
2021/11/04 05:06:30;;;;;;;4.57;3.77;;;7.60;99.90;;;;;;5038798;28;20452;-85
2021/11/04 05:08:56;;;;;;;2.43;2.03;;;7.70;99.90;;;;;;5023119;28;20449;-85
2021/11/04 05:11:23;;;;;;;1.70;1.60;;;7.70;99.90;;;;;;5034939;28;21002;-85
2021/11/04 05:13:50;;;;;;;1.70;1.60;;;7.60;99.90;;;;;;5035588;28;20480;-85
2021/11/04 05:16:16;;;;;;;1.27;1.17;;;7.60;99.90;;;;;;5038265;28;20441;-85
2021/11/04 05:18:45;;;;;;;1.63;1.53;;;7.60;99.90;;;;;;5036003;28;20496;-84
2021/11/04 05:21:11;;;;;;;1.33;1.20;;;7.60;99.90;;;;;;5031591;28;20504;-89
2021/11/04 05:23:38;;;;;;;1.70;1.50;;;7.60;99.90;;;;;;5023978;28;20434;-89
2021/11/04 05:26:06;;;;;;;1.47;1.37;;;7.70;99.90;;;;;;5026515;28;20457;-89
2021/11/04 05:28:33;;;;;;;1.50;1.40;;;7.80;99.90;;;;;;5044992;28;20484;-88
2021/11/04 05:31:01;;;;;;;2.37;1.50;;;7.80;99.90;;;;;;5031015;28;20538;-88
2021/11/04 05:33:28;;;;;;;1.50;1.40;;;7.70;99.90;;;;;;5029263;28;20464;-88
2021/11/04 05:35:56;;;;;;;2.30;1.90;;;7.80;99.90;;;;;;5046421;28;20444;-88
2021/11/04 05:38:23;;;;;;;1.63;1.40;;;7.70;99.90;;;;;;5039206;28;20465;-88
2021/11/04 05:40:50;;;;;;;1.57;1.47;;;7.80;99.90;;;;;;5048380;28;20436;-88
2021/11/04 05:43:16;;;;;;;1.47;1.37;;;7.80;99.90;;;;;;5034702;28;20433;-89
2021/11/04 05:45:43;;;;;;;1.77;1.67;;;7.80;99.90;;;;;;5031078;28;20453;-90
2021/11/04 05:48:10;;;;;;;4.07;2.10;;;7.90;99.90;;;;;;5026997;28;20468;-88
2021/11/04 05:50:36;;;;;;;1.93;1.60;;;7.90;99.90;;;;;;5028871;28;20433;-88
2021/11/04 05:53:05;;;;;;;1.70;1.30;;;7.90;99.90;;;;;;5026423;28;20480;-90
2021/11/04 05:55:31;;;;;;;2.03;1.60;;;7.90;99.90;;;;;;5029585;28;20449;-89
2021/11/04 05:57:59;;;;;;;2.10;1.80;;;7.80;99.90;;;;;;5026564;28;20883;-89
2021/11/04 06:00:26;;;;;;;2.20;1.90;;;7.80;99.90;;;;;;5028520;28;20452;-89
2021/11/04 06:02:52;;;;;;;1.60;1.50;;;7.80;99.90;;;;;;5037232;28;20441;-89
2021/11/04 06:05:19;;;;;;;3.50;2.53;;;7.80;99.90;;;;;;5042532;28;20443;-88
2021/11/04 06:07:46;;;;;;;2.27;1.87;;;7.80;99.90;;;;;;5035455;28;20470;-88
2021/11/04 06:10:16;;;;;;;1.53;1.37;;;7.80;99.90;;;;;;5049413;28;20422;-88
2021/11/04 06:12:42;;;;;;;3.03;1.47;;;7.90;99.90;;;;;;5037186;28;20443;-89
2021/11/04 06:15:10;;;;;;;1.20;1.10;;;7.90;99.90;;;;;;5025857;28;20477;-89
2021/11/04 06:17:36;;;;;;;29.73;5.70;;;7.80;99.90;;;;;;5030541;28;20874;-89
2021/11/04 06:20:04;;;;;;;12.53;2.77;;;7.90;99.90;;;;;;5042899;28;20423;-89
2021/11/04 06:22:30;;;;;;;19.47;4.50;;;8.00;99.90;;;;;;5029987;28;20445;-89
2021/11/04 06:24:57;;;;;;;1.50;1.27;;;8.00;99.90;;;;;;5038165;28;20449;-89
2021/11/04 06:27:25;;;;;;;1.63;1.27;;;8.00;99.90;;;;;;5040814;28;20461;-88
2021/11/04 06:29:52;;;;;;;1.30;1.20;;;8.00;99.90;;;;;;5036459;28;20434;-89
2021/11/04 06:32:18;;;;;;;3.47;1.10;;;7.90;99.90;;;;;;5038130;28;20446;-88
2021/11/04 06:34:45;;;;;;;1.60;1.10;;;7.90;99.90;;;;;;5034571;28;20469;-88
2021/11/04 06:37:12;;;;;;;1.90;1.13;;;8.00;99.90;;;;;;5040072;28;20466;-89
2021/11/04 06:39:39;;;;;;;2.37;1.80;;;8.00;99.90;;;;;;5027935;28;20495;-88
2021/11/04 06:42:06;;;;;;;2.97;1.77;;;8.00;99.90;;;;;;5026963;28;20445;-91
2021/11/04 06:44:34;;;;;;;2.13;1.60;;;8.00;99.90;;;;;;5026659;28;20435;-90
2021/11/04 06:47:03;;;;;;;1.00;0.83;;;7.90;99.90;;;;;;5026731;28;21006;-89
2021/11/04 06:49:36;;;;;;;2.43;1.63;;;7.90;99.90;;;;;;5027016;28;20444;-90
2021/11/04 06:52:03;;;;;;;1.37;1.17;;;7.90;99.90;;;;;;5023339;28;20939;-89
2021/11/04 06:54:31;;;;;;;15.73;1.97;;;7.90;99.90;;;;;;5028434;28;20477;-90
2021/11/04 06:57:02;;;;;;;2.50;1.80;;;7.90;99.90;;;;;;5022872;28;20468;-90
2021/11/04 06:59:35;;;;;;;1.57;1.33;;;8.00;99.90;;;;;;5027725;28;20510;-90
2021/11/04 07:02:03;;;;;;;3.57;1.40;;;8.00;99.90;;;;;;5025419;28;20475;-89
2021/11/04 07:04:32;;;;;;;3.30;1.77;;;7.90;99.90;;;;;;5026078;28;20517;-89
2021/11/04 07:07:05;;;;;;;2.90;1.87;;;8.00;99.90;;;;;;5020899;28;20495;-90
2021/11/04 07:09:34;;;;;;;2.70;1.57;;;8.00;99.90;;;;;;5040738;28;20437;-90
2021/11/04 07:12:01;;;;;;;1.97;1.70;;;8.00;99.90;;;;;;5040806;28;20466;-89
2021/11/04 07:14:29;;;;;;;2.27;2.07;;;8.00;99.90;;;;;;5028224;28;20480;-89
2021/11/04 07:16:59;;;;;;;4.70;2.63;;;8.10;99.90;;;;;;5026955;28;21143;-89
2021/11/04 07:19:27;;;;;;;1.60;1.47;;;8.10;99.90;;;;;;5045776;28;20640;-87
2021/11/04 07:22:00;;;;;;;1.67;1.30;;;8.10;99.90;;;;;;5029585;28;20473;-89
2021/11/04 07:24:33;;;;;;;1.60;1.50;;;8.10;99.90;;;;;;5026012;28;20442;-89
2021/11/04 07:27:11;;;;;;;1.67;1.57;;;8.10;99.90;;;;;;5034970;28;20486;-87
2021/11/04 07:29:43;;;;;;;3.23;2.70;;;8.10;99.90;;;;;;5046181;28;20608;-89
2021/11/04 07:32:14;;;;;;;6.00;2.10;;;8.20;99.90;;;;;;5028396;28;20438;-89
2021/11/04 07:34:43;;;;;;;3.40;1.87;;;8.20;99.90;;;;;;5027345;28;20555;-90
2021/11/04 07:37:11;;;;;;;2.37;1.83;;;8.30;99.90;;;;;;5030740;28;20464;-89
2021/11/04 07:39:41;;;;;;;2.30;1.90;;;8.30;99.90;;;;;;5047847;28;20422;-89
2021/11/04 07:42:09;;;;;;;1.60;1.30;;;8.30;99.90;;;;;;5026805;28;20832;-90
2021/11/04 07:44:37;;;;;;;1.53;1.43;;;8.30;99.90;;;;;;5024331;28;21001;-89
2021/11/04 07:47:06;;;;;;;3.63;1.80;;;8.30;99.90;;;;;;5043594;28;20463;-90
2021/11/04 07:49:35;;;;;;;2.07;1.93;;;8.30;99.90;;;;;;5052413;28;20512;-90
2021/11/04 07:52:02;;;;;;;1.47;1.30;;;8.30;99.90;;;;;;5040195;28;20437;-91
2021/11/04 07:54:31;;;;;;;2.23;1.37;;;8.30;99.90;;;;;;5040192;28;20985;-91
2021/11/04 07:57:23;;;;;;;1.70;1.60;;;8.30;99.90;;;;;;5037594;28;20464;-90
2021/11/04 07:59:50;;;;;;;3.70;1.70;;;8.30;99.90;;;;;;5022799;28;20959;-91
2021/11/04 08:02:17;;;;;;;1.70;1.50;;;8.30;99.90;;;;;;5026791;28;20445;-90
2021/11/04 08:04:45;;;;;;;1.60;1.50;;;8.20;99.90;;;;;;5024008;28;20450;-90
2021/11/04 08:07:12;;;;;;;2.63;2.03;;;8.20;99.90;;;;;;5024172;28;20461;-90
2021/11/04 08:09:39;;;;;;;1.57;1.47;;;8.10;99.90;;;;;;5027439;28;20450;-90
2021/11/04 08:12:07;;;;;;;2.10;1.40;;;8.10;99.90;;;;;;5030084;28;20474;-89
2021/11/04 08:14:36;;;;;;;3.70;1.50;;;8.00;99.90;;;;;;5036511;28;20537;-90
2021/11/04 08:17:03;;;;;;;2.73;1.70;;;8.00;99.90;;;;;;5045067;28;20472;-91
2021/11/04 08:19:34;;;;;;;2.43;1.60;;;7.90;99.90;;;;;;5047938;28;20453;-89
2021/11/04 08:22:03;;;;;;;2.67;2.43;;;7.90;99.90;;;;;;5038462;28;20540;-87
2021/11/04 08:24:30;;;;;;;2.33;2.03;;;7.90;99.90;;;;;;5026571;28;20444;-87
2021/11/04 08:26:56;;;;;;;1.73;1.63;;;7.90;99.90;;;;;;5027275;28;20977;-87
2021/11/04 08:29:23;;;;;;;1.70;1.60;;;7.80;99.90;;;;;;5024313;28;20433;-89
2021/11/04 08:31:50;;;;;;;3.53;2.23;;;7.90;99.90;;;;;;5025159;28;20469;-87
2021/11/04 08:34:17;;;;;;;2.50;2.10;;;7.90;99.90;;;;;;5016191;28;20911;-87
2021/11/04 08:36:43;;;;;;;2.60;2.40;;;8.00;99.90;;;;;;5015081;28;20465;-87
2021/11/04 08:39:13;;;;;;;2.53;2.10;;;8.00;99.90;;;;;;5030656;28;20453;-81
2021/11/04 08:41:39;;;;;;;2.77;2.57;;;8.00;99.90;;;;;;5024043;28;20457;-84
2021/11/04 08:44:06;;;;;;;2.60;2.40;;;8.00;99.90;;;;;;5020892;28;20458;-84
2021/11/04 08:46:33;;;;;;;3.17;2.90;;;8.10;99.90;;;;;;5020305;28;20458;-84
2021/11/04 08:49:00;;;;;;;3.40;2.60;;;8.10;99.90;;;;;;5017825;28;20446;-83
2021/11/04 08:51:27;;;;;;;3.10;2.90;;;8.10;99.90;;;;;;5016873;28;20450;-84
2021/11/04 08:53:53;;;;;;;3.70;3.40;;;8.20;99.90;;;;;;5023696;28;20426;-83
2021/11/04 08:56:21;;;;;;;3.13;2.83;;;8.20;99.90;;;;;;5022799;28;20450;-84
2021/11/04 08:58:48;;;;;;;3.60;2.40;;;8.30;99.90;;;;;;5017125;28;20442;-84
2021/11/04 09:01:16;;;;;;;2.73;2.53;;;8.20;99.90;;;;;;5017081;28;20461;-84
2021/11/04 09:03:43;;;;;;;5.97;2.90;;;8.10;99.90;;;;;;5017171;28;20458;-83
2021/11/04 09:06:10;;;;;;;3.40;3.10;;;8.10;99.90;;;;;;5018101;28;20453;-84
2021/11/04 09:08:37;;;;;;;3.13;2.13;;;8.10;99.90;;;;;;5016463;28;21053;-84
2021/11/04 09:11:03;;;;;;;5.37;2.93;;;8.20;99.90;;;;;;5018024;28;20477;-85
2021/11/04 09:13:32;;;;;;;3.70;2.67;;;8.20;99.90;;;;;;5029447;28;20446;-87
2021/11/04 09:15:59;;;;;;;2.93;2.73;;;8.20;99.90;;;;;;5019447;28;20489;-92
2021/11/04 09:18:25;;;;;;;5.13;3.47;;;8.30;99.90;;;;;;5017782;28;20482;-88
2021/11/04 09:20:52;;;;;;;3.50;2.90;;;8.30;99.90;;;;;;5032286;28;20453;-90
2021/11/04 09:23:19;;;;;;;2.90;2.60;;;8.30;99.90;;;;;;5034384;28;20441;-89
2021/11/04 09:25:46;;;;;;;4.90;2.60;;;8.30;99.90;;;;;;5039000;28;20442;-90
2021/11/04 09:28:13;;;;;;;3.27;2.97;;;8.40;99.90;;;;;;5039823;28;20458;-90
2021/11/04 09:30:41;;;;;;;3.80;2.90;;;8.50;99.90;;;;;;5038610;28;20442;-90
2021/11/04 09:33:09;;;;;;;2.80;2.43;;;8.60;99.90;;;;;;5020647;28;20481;-90
2021/11/04 09:35:36;;;;;;;3.03;2.47;;;8.50;99.90;;;;;;5019567;28;20864;-90
2021/11/04 09:38:04;;;;;;;2.60;2.20;;;8.60;99.90;;;;;;5018141;28;20474;-91
2021/11/04 09:40:31;;;;;;;2.17;2.00;;;8.60;99.90;;;;;;5017642;28;20458;-90
2021/11/04 09:42:58;;;;;;;2.57;2.07;;;8.50;99.90;;;;;;5018206;28;20453;-90
2021/11/04 09:45:26;;;;;;;2.10;1.90;;;8.50;99.90;;;;;;5019545;28;20449;-90
2021/11/04 09:47:54;;;;;;;3.30;2.37;;;8.50;99.90;;;;;;5017376;28;20477;-90
2021/11/04 09:50:23;;;;;;;2.40;2.20;;;8.50;99.90;;;;;;5057861;22;20495;-87
2021/11/04 09:53:02;;;;;;;3.23;2.03;;;8.60;99.90;;;;;;5044599;28;20459;-87
2021/11/04 09:55:30;;;;;;;2.63;2.10;;;8.50;99.90;;;;;;5038942;28;20477;-88
2021/11/04 09:58:37;;;;;;;;;;;;;;;;;;;;;
2021/11/04 10:01:23;;;;;;;1.80;1.50;;;8.50;99.90;;;;;;5036914;28;20476;-89
2021/11/04 10:03:56;;;;;;;1.67;1.50;;;8.50;99.90;;;;;;5048905;28;20472;-88
2021/11/04 10:14:53;;;;;;;1.63;1.33;;;8.50;99.90;;;;;;5041362;28;20497;-89
2021/11/04 10:17:57;;;;;;;3.00;1.30;;;8.40;99.90;;;;;;5036431;28;20452;-89
2021/11/04 10:20:40;;;;;;;1.73;1.00;;;8.40;99.90;;;;;;5017063;28;20476;-89
2021/11/04 10:23:22;;;;;;;3.10;2.17;;;8.30;99.90;;;;;;5036860;28;20453;-89
2021/11/04 10:25:54;;;;;;;1.20;1.00;;;8.40;99.90;;;;;;5038072;28;20893;-90
2021/11/04 10:28:32;;;;;;;1.40;1.30;;;8.30;99.90;;;;;;5037224;28;20449;-88
2021/11/04 10:31:07;;;;;;;1.80;1.10;;;8.30;99.90;;;;;;5038020;28;20552;-89
2021/11/04 10:33:42;;;;;;;2.23;1.50;;;8.30;99.90;;;;;;5040689;28;20449;-89
2021/11/04 10:36:23;;;;;;;8.77;4.50;;;8.30;99.90;;;;;;5037516;28;20499;-88
2021/11/04 10:39:07;;;;;;;3.90;2.43;;;8.40;99.90;;;;;;5037248;28;20469;-89
2021/11/04 10:41:43;;;;;;;6.10;2.90;;;8.30;99.90;;;;;;5036955;28;20445;-89
2021/11/04 10:44:19;;;;;;;3.33;2.60;;;8.30;99.90;;;;;;5044221;28;20453;-89
2021/11/04 10:46:54;;;;;;;1.67;1.57;;;8.30;99.90;;;;;;5037489;28;20988;-89
2021/11/04 10:52:09;;;;;;;4.27;2.63;;;8.30;99.90;;;;;;5031608;28;20461;-88
2021/11/04 10:54:45;;;;;;;5.53;2.50;;;8.20;99.90;;;;;;5036916;28;20910;-88
2021/11/04 10:57:16;;;;;;;3.73;2.70;;;8.20;99.90;;;;;;5040374;28;20457;-89
2021/11/04 10:59:53;;;;;;;2.60;1.67;;;8.30;99.90;;;;;;5035809;28;20556;-89
2021/11/04 11:02:22;;;;;;;2.07;1.77;;;8.30;99.90;;;;;;5045379;28;20480;-89
2021/11/04 11:04:51;;;;;;;2.13;1.90;;;8.30;99.90;;;;;;5042898;28;20957;-89
2021/11/04 11:07:25;;;;;;;7.43;2.13;;;8.30;99.90;;;;;;5057502;28;20444;-87
2021/11/04 11:10:00;;;;;;;3.10;2.50;;;8.30;99.90;;;;;;5039378;28;20473;-88
2021/11/04 11:12:28;;;;;;;3.60;2.73;;;8.30;99.90;;;;;;5037286;28;20499;-88
2021/11/04 11:17:43;;;;;;;2.97;2.40;;;8.40;99.90;;;;;;5053420;28;20430;-87
2021/11/04 11:20:27;;;;;;;7.10;4.47;;;8.40;99.90;;;;;;5046347;28;20508;-89
2021/11/04 11:23:03;;;;;;;5.73;3.93;;;8.50;99.90;;;;;;5044933;28;20447;-89
2021/11/04 11:25:45;;;;;;;3.90;3.37;;;8.60;99.90;;;;;;5054610;28;20445;-88
2021/11/04 11:28:31;;;;;;;3.13;2.83;;;8.60;99.90;;;;;;5055924;28;20544;-88
2021/11/04 11:31:28;;;;;;;3.50;2.50;;;8.60;99.90;;;;;;5046278;28;20503;-88
2021/11/04 11:34:29;;;;;;;3.23;2.70;;;8.70;99.90;;;;;;5052104;28;20450;-88
2021/11/04 11:37:19;;;;;;;5.73;5.00;;;8.60;99.90;;;;;;5025937;28;20450;-89
2021/11/04 11:40:12;;;;;;;8.13;5.10;;;8.60;99.90;;;;;;5017532;28;20480;-89
2021/11/04 11:43:17;;;;;;;4.10;3.60;;;8.60;99.90;;;;;;5022654;28;20449;-89
2021/11/04 11:46:02;;;;;;;4.90;3.90;;;8.70;99.90;;;;;;5035474;28;20533;-87
2021/11/04 11:48:36;;;;;;;8.30;7.03;;;8.70;99.90;;;;;;5034937;28;20455;-88
2021/11/04 11:51:08;;;;;;;8.00;5.53;;;8.70;99.90;;;;;;5034524;28;20546;-89
2021/11/04 11:53:53;;;;;;;5.93;4.73;;;8.60;99.90;;;;;;5036055;28;20466;-89
2021/11/04 11:56:34;;;;;;;7.57;6.57;;;8.70;99.90;;;;;;5035488;28;20511;-90
2021/11/04 11:59:17;;;;;;;16.07;10.90;;;8.70;99.90;;;;;;5034067;28;20453;-88
2021/11/04 12:02:02;;;;;;;11.57;8.10;;;8.70;99.90;;;;;;5034082;28;20532;-88
2021/11/04 12:07:31;;;;;;;6.30;5.70;;;8.70;99.90;;;;;;5036473;28;20473;-88
2021/11/04 12:10:17;;;;;;;4.87;4.37;;;8.70;99.90;;;;;;5050287;28;20993;-89
2021/11/04 12:12:56;;;;;;;6.10;5.60;;;8.70;99.90;;;;;;5047484;28;20448;-88
2021/11/04 12:16:05;;;;;;;7.17;6.47;;;8.60;99.90;;;;;;5046258;28;20481;-89
2021/11/04 12:18:52;;;;;;;7.30;6.60;;;8.60;99.90;;;;;;5023920;28;20428;-87
2021/11/04 12:21:25;;;;;;;12.67;9.97;;;8.60;99.90;;;;;;5038160;28;20949;-88
2021/11/04 12:23:58;;;;;;;10.70;8.90;;;8.70;99.90;;;;;;5037913;28;20481;-89
2021/11/04 12:26:36;;;;;;;9.43;8.43;;;8.70;99.90;;;;;;5042031;28;20462;-89
2021/11/04 12:29:16;;;;;;;7.93;7.13;;;8.80;99.90;;;;;;5035025;28;20897;-90
2021/11/04 12:31:56;;;;;;;8.50;7.63;;;8.90;99.90;;;;;;5041084;28;20445;-90
2021/11/04 12:34:32;;;;;;;7.73;7.00;;;9.00;99.90;;;;;;5047612;28;20437;-92
2021/11/04 12:37:07;;;;;;;8.10;7.20;;;9.10;99.90;;;;;;5039825;28;20488;-91
2021/11/04 12:39:58;;;;;;;;;;;;;;;;;;;;;
2021/11/04 12:49:13;;;;;;;6.67;6.00;;;9.90;99.90;;;;;;5048146;28;20471;-90
2021/11/04 12:54:43;;;;;;;6.33;5.73;;;10.20;99.90;;;;;;5059584;28;20450;-90
2021/11/04 13:26:13;;;;;;;8.10;7.33;;;10.10;99.90;;;;;;4728341;22;20465;-89
2021/11/04 13:29:31;;;;;;;6.53;5.63;;;10.10;99.90;;;;;;5057053;28;20478;-87
2021/11/04 13:32:14;;;;;;;6.80;6.10;;;10.10;99.90;;;;;;5019749;28;20456;-89
2021/11/04 13:34:43;;;;;;;7.33;6.63;;;10.00;99.90;;;;;;5040822;28;20533;-91
2021/11/04 13:37:42;;;;;;;5.97;5.03;;;10.00;99.90;;;;;;5028291;28;20497;-89
2021/11/04 13:40:10;;;;;;;7.43;6.73;;;9.90;99.90;;;;;;5024434;28;20486;-87
2021/11/04 13:42:49;;;;;;;6.90;6.07;;;9.90;99.90;;;;;;5048184;28;20438;-90
2021/11/04 13:45:39;;;;;;;9.30;7.70;;;9.80;99.90;;;;;;5038633;28;20829;-91
2021/11/04 13:48:06;;;;;;;6.97;6.23;;;9.80;99.90;;;;;;5019808;28;20497;-87
2021/11/04 13:50:58;;;;;;;;;;;;;;;;;;;;;
2021/11/04 13:53:26;;;;;;;8.53;7.70;;;9.80;99.90;;;;;;5019214;28;20438;-87
2021/11/04 13:56:24;;;;;;;8.67;7.40;;;9.80;99.90;;;;;;5020656;28;20484;-88
2021/11/04 13:58:53;;;;;;;8.00;6.93;;;9.80;99.90;;;;;;5019979;28;20454;-88
2021/11/04 14:01:19;;;;;;;10.73;8.60;;;9.80;99.90;;;;;;5019816;28;20454;-88
2021/11/04 14:04:05;;;;;;;12.10;8.50;;;9.80;99.90;;;;;;5038099;28;20430;-87
2021/11/04 14:06:40;;;;;;;8.80;7.97;;;9.80;99.90;;;;;;5038329;28;20438;-87
2021/11/04 14:09:37;;;;;;;7.00;6.40;;;9.90;99.90;;;;;;5040305;28;20462;-86
2021/11/04 14:12:20;;;;;;;8.20;6.77;;;9.90;99.90;;;;;;5031945;28;20510;-87
2021/11/04 14:14:57;;;;;;;8.17;7.03;;;9.90;99.90;;;;;;5011021;28;20453;-88